sensor_id;sensor_type;location;lat;lon;timestamp;temperature;humidity
5786;DHT22;2919;48.630;9.000;2023-03-23T00:01:06;11.50;90.10
5786;DHT22;2919;48.630;9.000;2023-03-23T00:03:32;11.60;89.90
5786;DHT22;2919;48.630;9.000;2023-03-23T00:06:00;11.50;90.00
5786;DHT22;2919;48.630;9.000;2023-03-23T00:08:28;11.50;90.00
5786;DHT22;2919;48.630;9.000;2023-03-23T00:10:53;11.60;89.70
5786;DHT22;2919;48.630;9.000;2023-03-23T00:13:23;11.60;89.70
5786;DHT22;2919;48.630;9.000;2023-03-23T00:15:49;11.60;90.00
5786;DHT22;2919;48.630;9.000;2023-03-23T00:18:18;11.60;90.10
5786;DHT22;2919;48.630;9.000;2023-03-23T00:20:47;11.50;89.50
5786;DHT22;2919;48.630;9.000;2023-03-23T00:23:15;11.40;89.60
5786;DHT22;2919;48.630;9.000;2023-03-23T00:25:48;11.50;89.90
5786;DHT22;2919;48.630;9.000;2023-03-23T00:28:15;11.40;90.10
5786;DHT22;2919;48.630;9.000;2023-03-23T00:30:41;11.40;89.80
5786;DHT22;2919;48.630;9.000;2023-03-23T00:33:11;11.50;90.00
5786;DHT22;2919;48.630;9.000;2023-03-23T00:35:39;11.40;90.30
5786;DHT22;2919;48.630;9.000;2023-03-23T00:38:05;11.40;90.60
5786;DHT22;2919;48.630;9.000;2023-03-23T00:40:31;11.30;90.90
5786;DHT22;2919;48.630;9.000;2023-03-23T00:42:56;11.20;90.90
5786;DHT22;2919;48.630;9.000;2023-03-23T00:45:22;11.20;91.30
5786;DHT22;2919;48.630;9.000;2023-03-23T00:47:49;11.10;91.70
5786;DHT22;2919;48.630;9.000;2023-03-23T00:50:16;11.10;92.00
5786;DHT22;2919;48.630;9.000;2023-03-23T00:52:43;11.00;92.30
5786;DHT22;2919;48.630;9.000;2023-03-23T00:55:09;11.00;92.40
5786;DHT22;2919;48.630;9.000;2023-03-23T00:57:35;11.00;92.70
5786;DHT22;2919;48.630;9.000;2023-03-23T01:00:01;11.00;92.60
5786;DHT22;2919;48.630;9.000;2023-03-23T01:02:26;10.90;92.80
5786;DHT22;2919;48.630;9.000;2023-03-23T01:04:52;10.80;92.40
5786;DHT22;2919;48.630;9.000;2023-03-23T01:07:20;10.90;92.10
5786;DHT22;2919;48.630;9.000;2023-03-23T01:09:46;10.90;91.60
5786;DHT22;2919;48.630;9.000;2023-03-23T01:12:12;10.90;91.50
5786;DHT22;2919;48.630;9.000;2023-03-23T01:14:38;11.00;91.50
5786;DHT22;2919;48.630;9.000;2023-03-23T01:17:04;11.00;91.30
5786;DHT22;2919;48.630;9.000;2023-03-23T01:19:29;11.00;91.40
5786;DHT22;2919;48.630;9.000;2023-03-23T01:21:55;11.00;91.30
5786;DHT22;2919;48.630;9.000;2023-03-23T01:24:21;11.00;91.30
5786;DHT22;2919;48.630;9.000;2023-03-23T01:26:47;11.00;91.50
5786;DHT22;2919;48.630;9.000;2023-03-23T01:29:13;11.00;91.30
5786;DHT22;2919;48.630;9.000;2023-03-23T01:31:39;11.10;91.70
5786;DHT22;2919;48.630;9.000;2023-03-23T01:34:05;11.00;91.30
5786;DHT22;2919;48.630;9.000;2023-03-23T01:36:31;11.10;91.00
5786;DHT22;2919;48.630;9.000;2023-03-23T01:38:59;11.10;91.10
5786;DHT22;2919;48.630;9.000;2023-03-23T01:41:26;11.10;91.10
5786;DHT22;2919;48.630;9.000;2023-03-23T01:46:28;11.20;91.40
5786;DHT22;2919;48.630;9.000;2023-03-23T01:48:56;11.30;91.00
5786;DHT22;2919;48.630;9.000;2023-03-23T01:51:24;11.50;91.10
5786;DHT22;2919;48.630;9.000;2023-03-23T01:53:56;11.50;91.00
5786;DHT22;2919;48.630;9.000;2023-03-23T01:56:25;11.60;91.20
5786;DHT22;2919;48.630;9.000;2023-03-23T01:58:53;11.50;91.00
5786;DHT22;2919;48.630;9.000;2023-03-23T02:01:21;11.60;91.40
5786;DHT22;2919;48.630;9.000;2023-03-23T02:03:47;11.60;91.00
5786;DHT22;2919;48.630;9.000;2023-03-23T02:06:14;11.70;90.90
5786;DHT22;2919;48.630;9.000;2023-03-23T02:08:41;11.70;91.10
5786;DHT22;2919;48.630;9.000;2023-03-23T02:11:20;11.70;91.30
5786;DHT22;2919;48.630;9.000;2023-03-23T02:13:47;11.60;91.20
5786;DHT22;2919;48.630;9.000;2023-03-23T02:16:21;11.70;91.10
5786;DHT22;2919;48.630;9.000;2023-03-23T02:27:40;11.70;91.20
5786;DHT22;2919;48.630;9.000;2023-03-23T02:35:24;11.60;91.00
5786;DHT22;2919;48.630;9.000;2023-03-23T02:38:02;11.70;90.80
5786;DHT22;2919;48.630;9.000;2023-03-23T02:40:40;11.80;91.00
5786;DHT22;2919;48.630;9.000;2023-03-23T02:43:11;11.70;90.70
5786;DHT22;2919;48.630;9.000;2023-03-23T02:45:38;11.70;90.60
5786;DHT22;2919;48.630;9.000;2023-03-23T02:48:06;11.80;90.60
5786;DHT22;2919;48.630;9.000;2023-03-23T02:50:33;11.80;90.70
5786;DHT22;2919;48.630;9.000;2023-03-23T02:53:01;11.70;90.60
5786;DHT22;2919;48.630;9.000;2023-03-23T02:55:29;11.70;90.70
5786;DHT22;2919;48.630;9.000;2023-03-23T02:57:56;11.80;90.60
5786;DHT22;2919;48.630;9.000;2023-03-23T03:00:22;11.80;91.00
5786;DHT22;2919;48.630;9.000;2023-03-23T03:02:53;11.70;90.70
5786;DHT22;2919;48.630;9.000;2023-03-23T03:05:40;11.70;90.60
5786;DHT22;2919;48.630;9.000;2023-03-23T03:11:06;11.80;90.80
5786;DHT22;2919;48.630;9.000;2023-03-23T03:16:37;11.70;91.10
5786;DHT22;2919;48.630;9.000;2023-03-23T03:19:20;11.60;91.00
5786;DHT22;2919;48.630;9.000;2023-03-23T03:21:52;11.60;91.20
5786;DHT22;2919;48.630;9.000;2023-03-23T03:24:21;11.60;91.40
5786;DHT22;2919;48.630;9.000;2023-03-23T03:26:49;11.60;91.40
5786;DHT22;2919;48.630;9.000;2023-03-23T03:29:19;11.60;91.60
5786;DHT22;2919;48.630;9.000;2023-03-23T03:31:46;11.60;91.60
5786;DHT22;2919;48.630;9.000;2023-03-23T03:34:13;11.60;91.70
5786;DHT22;2919;48.630;9.000;2023-03-23T03:36:46;11.60;91.70
5786;DHT22;2919;48.630;9.000;2023-03-23T03:39:14;11.60;92.10
5786;DHT22;2919;48.630;9.000;2023-03-23T03:41:41;11.60;91.60
5786;DHT22;2919;48.630;9.000;2023-03-23T03:44:07;11.70;91.50
5786;DHT22;2919;48.630;9.000;2023-03-23T03:46:34;11.70;91.50
5786;DHT22;2919;48.630;9.000;2023-03-23T03:49:01;11.80;91.40
5786;DHT22;2919;48.630;9.000;2023-03-23T03:51:28;11.80;91.40
5786;DHT22;2919;48.630;9.000;2023-03-23T03:53:54;11.80;91.50
5786;DHT22;2919;48.630;9.000;2023-03-23T03:56:21;11.80;91.60
5786;DHT22;2919;48.630;9.000;2023-03-23T03:58:48;11.70;91.80
5786;DHT22;2919;48.630;9.000;2023-03-23T04:01:15;11.80;91.70
5786;DHT22;2919;48.630;9.000;2023-03-23T04:03:41;11.80;91.90
5786;DHT22;2919;48.630;9.000;2023-03-23T04:06:08;11.80;91.60
5786;DHT22;2919;48.630;9.000;2023-03-23T04:08:34;11.80;91.50
5786;DHT22;2919;48.630;9.000;2023-03-23T04:11:01;11.80;91.50
5786;DHT22;2919;48.630;9.000;2023-03-23T04:13:26;12.00;91.50
5786;DHT22;2919;48.630;9.000;2023-03-23T04:15:52;11.90;91.60
5786;DHT22;2919;48.630;9.000;2023-03-23T04:18:18;11.90;91.60
5786;DHT22;2919;48.630;9.000;2023-03-23T04:20:46;11.90;91.80
5786;DHT22;2919;48.630;9.000;2023-03-23T04:23:15;11.90;92.00
5786;DHT22;2919;48.630;9.000;2023-03-23T04:25:46;11.90;91.60
5786;DHT22;2919;48.630;9.000;2023-03-23T04:28:12;11.80;91.70
5786;DHT22;2919;48.630;9.000;2023-03-23T04:30:38;11.80;91.80
5786;DHT22;2919;48.630;9.000;2023-03-23T04:33:04;11.90;91.70
5786;DHT22;2919;48.630;9.000;2023-03-23T04:35:29;11.90;91.60
5786;DHT22;2919;48.630;9.000;2023-03-23T04:37:56;11.90;91.60
5786;DHT22;2919;48.630;9.000;2023-03-23T04:40:22;11.90;91.60
5786;DHT22;2919;48.630;9.000;2023-03-23T04:42:48;11.90;91.60
5786;DHT22;2919;48.630;9.000;2023-03-23T04:45:19;11.80;91.80
5786;DHT22;2919;48.630;9.000;2023-03-23T04:47:50;11.70;92.10
5786;DHT22;2919;48.630;9.000;2023-03-23T04:50:20;11.70;92.10
5786;DHT22;2919;48.630;9.000;2023-03-23T04:52:47;11.70;92.00
5786;DHT22;2919;48.630;9.000;2023-03-23T04:55:13;11.60;92.10
5786;DHT22;2919;48.630;9.000;2023-03-23T04:57:39;11.60;92.20
5786;DHT22;2919;48.630;9.000;2023-03-23T05:00:06;11.60;92.10
5786;DHT22;2919;48.630;9.000;2023-03-23T05:02:38;11.60;92.00
5786;DHT22;2919;48.630;9.000;2023-03-23T05:05:06;11.70;92.10
5786;DHT22;2919;48.630;9.000;2023-03-23T05:07:32;11.70;92.10
5786;DHT22;2919;48.630;9.000;2023-03-23T05:09:57;11.80;91.90
5786;DHT22;2919;48.630;9.000;2023-03-23T05:12:23;11.70;91.70
5786;DHT22;2919;48.630;9.000;2023-03-23T05:14:48;11.90;91.70
5786;DHT22;2919;48.630;9.000;2023-03-23T05:17:15;12.00;91.70
5786;DHT22;2919;48.630;9.000;2023-03-23T05:19:42;12.00;91.50
5786;DHT22;2919;48.630;9.000;2023-03-23T05:22:10;12.10;91.30
5786;DHT22;2919;48.630;9.000;2023-03-23T05:24:38;12.10;90.90
5786;DHT22;2919;48.630;9.000;2023-03-23T05:27:04;12.20;91.00
5786;DHT22;2919;48.630;9.000;2023-03-23T05:29:29;12.20;90.80
5786;DHT22;2919;48.630;9.000;2023-03-23T05:31:59;12.30;90.60
5786;DHT22;2919;48.630;9.000;2023-03-23T05:34:28;12.40;90.70
5786;DHT22;2919;48.630;9.000;2023-03-23T05:36:55;12.40;90.70
5786;DHT22;2919;48.630;9.000;2023-03-23T05:39:21;12.40;90.70
5786;DHT22;2919;48.630;9.000;2023-03-23T05:41:47;12.40;90.60
5786;DHT22;2919;48.630;9.000;2023-03-23T05:44:12;12.50;90.30
5786;DHT22;2919;48.630;9.000;2023-03-23T05:46:40;12.60;90.30
5786;DHT22;2919;48.630;9.000;2023-03-23T05:49:06;12.50;90.40
5786;DHT22;2919;48.630;9.000;2023-03-23T05:51:32;12.50;90.60
5786;DHT22;2919;48.630;9.000;2023-03-23T05:53:58;12.50;90.50
5786;DHT22;2919;48.630;9.000;2023-03-23T05:56:24;12.60;90.40
5786;DHT22;2919;48.630;9.000;2023-03-23T05:58:50;12.60;90.50
5786;DHT22;2919;48.630;9.000;2023-03-23T06:01:15;12.60;90.40
5786;DHT22;2919;48.630;9.000;2023-03-23T06:03:41;12.60;90.40
5786;DHT22;2919;48.630;9.000;2023-03-23T06:06:10;12.70;90.40
5786;DHT22;2919;48.630;9.000;2023-03-23T06:08:38;12.60;90.60
5786;DHT22;2919;48.630;9.000;2023-03-23T06:11:05;12.60;90.60
5786;DHT22;2919;48.630;9.000;2023-03-23T06:13:31;12.70;90.40
5786;DHT22;2919;48.630;9.000;2023-03-23T06:15:57;12.70;90.50
5786;DHT22;2919;48.630;9.000;2023-03-23T06:18:24;12.70;90.50
5786;DHT22;2919;48.630;9.000;2023-03-23T06:20:50;12.70;90.60
5786;DHT22;2919;48.630;9.000;2023-03-23T06:23:16;12.80;90.60
5786;DHT22;2919;48.630;9.000;2023-03-23T06:25:43;12.80;90.60
5786;DHT22;2919;48.630;9.000;2023-03-23T06:28:09;12.80;90.70
5786;DHT22;2919;48.630;9.000;2023-03-23T06:30:35;12.80;90.60
5786;DHT22;2919;48.630;9.000;2023-03-23T06:33:01;12.80;90.60
5786;DHT22;2919;48.630;9.000;2023-03-23T06:35:33;12.80;90.70
5786;DHT22;2919;48.630;9.000;2023-03-23T06:37:59;12.70;90.70
5786;DHT22;2919;48.630;9.000;2023-03-23T06:40:27;12.80;90.60
5786;DHT22;2919;48.630;9.000;2023-03-23T06:42:54;12.70;90.80
5786;DHT22;2919;48.630;9.000;2023-03-23T06:45:19;12.70;90.90
5786;DHT22;2919;48.630;9.000;2023-03-23T06:47:46;12.70;90.90
5786;DHT22;2919;48.630;9.000;2023-03-23T06:50:15;12.70;90.70
5786;DHT22;2919;48.630;9.000;2023-03-23T06:52:45;12.80;90.80
5786;DHT22;2919;48.630;9.000;2023-03-23T06:55:11;12.80;90.90
5786;DHT22;2919;48.630;9.000;2023-03-23T06:57:37;12.80;90.80
5786;DHT22;2919;48.630;9.000;2023-03-23T07:00:03;12.90;90.80
5786;DHT22;2919;48.630;9.000;2023-03-23T07:02:42;13.00;90.70
5786;DHT22;2919;48.630;9.000;2023-03-23T07:05:09;13.00;90.70
5786;DHT22;2919;48.630;9.000;2023-03-23T07:07:38;13.00;90.80
5786;DHT22;2919;48.630;9.000;2023-03-23T07:10:06;13.00;90.90
5786;DHT22;2919;48.630;9.000;2023-03-23T07:12:34;12.90;90.60
5786;DHT22;2919;48.630;9.000;2023-03-23T07:15:01;12.90;91.00
5786;DHT22;2919;48.630;9.000;2023-03-23T07:17:27;13.00;90.70
5786;DHT22;2919;48.630;9.000;2023-03-23T07:19:53;13.00;90.90
5786;DHT22;2919;48.630;9.000;2023-03-23T07:22:20;12.90;91.20
5786;DHT22;2919;48.630;9.000;2023-03-23T07:24:45;12.90;91.00
5786;DHT22;2919;48.630;9.000;2023-03-23T07:27:11;12.90;91.10
5786;DHT22;2919;48.630;9.000;2023-03-23T07:29:37;12.80;91.40
5786;DHT22;2919;48.630;9.000;2023-03-23T07:32:04;12.90;91.50
5786;DHT22;2919;48.630;9.000;2023-03-23T07:34:31;12.90;91.60
5786;DHT22;2919;48.630;9.000;2023-03-23T07:36:57;12.80;91.90
5786;DHT22;2919;48.630;9.000;2023-03-23T07:39:22;12.80;91.90
5786;DHT22;2919;48.630;9.000;2023-03-23T07:41:49;12.80;91.90
5786;DHT22;2919;48.630;9.000;2023-03-23T07:44:15;12.80;92.10
5786;DHT22;2919;48.630;9.000;2023-03-23T07:46:40;12.70;92.20
5786;DHT22;2919;48.630;9.000;2023-03-23T07:49:07;12.80;92.00
5786;DHT22;2919;48.630;9.000;2023-03-23T07:51:33;13.00;92.00
5786;DHT22;2919;48.630;9.000;2023-03-23T07:53:59;13.10;91.90
5786;DHT22;2919;48.630;9.000;2023-03-23T07:56:27;13.20;91.90
5786;DHT22;2919;48.630;9.000;2023-03-23T07:58:53;13.30;91.80
5786;DHT22;2919;48.630;9.000;2023-03-23T08:01:19;13.40;92.00
5786;DHT22;2919;48.630;9.000;2023-03-23T08:03:45;13.40;92.00
5786;DHT22;2919;48.630;9.000;2023-03-23T08:06:10;13.60;91.90
5786;DHT22;2919;48.630;9.000;2023-03-23T08:08:36;13.60;92.00
5786;DHT22;2919;48.630;9.000;2023-03-23T08:11:03;13.60;92.30
5786;DHT22;2919;48.630;9.000;2023-03-23T08:13:28;13.70;92.10
5786;DHT22;2919;48.630;9.000;2023-03-23T08:15:54;13.70;92.40
5786;DHT22;2919;48.630;9.000;2023-03-23T08:18:20;13.80;92.40
5786;DHT22;2919;48.630;9.000;2023-03-23T08:20:46;13.90;92.60
5786;DHT22;2919;48.630;9.000;2023-03-23T08:23:12;14.10;92.20
5786;DHT22;2919;48.630;9.000;2023-03-23T08:25:38;14.20;92.10
5786;DHT22;2919;48.630;9.000;2023-03-23T08:28:04;14.30;92.10
5786;DHT22;2919;48.630;9.000;2023-03-23T08:30:30;14.30;92.40
5786;DHT22;2919;48.630;9.000;2023-03-23T08:32:59;14.30;92.40
5786;DHT22;2919;48.630;9.000;2023-03-23T08:35:25;14.30;92.40
5786;DHT22;2919;48.630;9.000;2023-03-23T08:37:51;14.10;92.50
5786;DHT22;2919;48.630;9.000;2023-03-23T08:40:19;14.10;92.80
5786;DHT22;2919;48.630;9.000;2023-03-23T08:42:47;14.00;93.10
5786;DHT22;2919;48.630;9.000;2023-03-23T08:45:17;13.90;93.20
5786;DHT22;2919;48.630;9.000;2023-03-23T08:47:44;13.90;93.40
5786;DHT22;2919;48.630;9.000;2023-03-23T08:50:14;13.90;93.90
5786;DHT22;2919;48.630;9.000;2023-03-23T08:52:40;14.10;93.30
5786;DHT22;2919;48.630;9.000;2023-03-23T08:55:05;14.00;93.50
5786;DHT22;2919;48.630;9.000;2023-03-23T08:57:34;14.10;93.50
5786;DHT22;2919;48.630;9.000;2023-03-23T09:00:05;14.10;93.30
5786;DHT22;2919;48.630;9.000;2023-03-23T09:02:43;14.10;93.40
5786;DHT22;2919;48.630;9.000;2023-03-23T09:05:10;14.10;93.90
5786;DHT22;2919;48.630;9.000;2023-03-23T09:07:42;14.20;93.70
5786;DHT22;2919;48.630;9.000;2023-03-23T09:10:09;14.30;93.90
5786;DHT22;2919;48.630;9.000;2023-03-23T09:12:35;14.40;93.90
5786;DHT22;2919;48.630;9.000;2023-03-23T09:15:03;14.40;93.90
5786;DHT22;2919;48.630;9.000;2023-03-23T09:17:37;14.50;93.40
5786;DHT22;2919;48.630;9.000;2023-03-23T09:20:04;14.60;93.40
5786;DHT22;2919;48.630;9.000;2023-03-23T09:22:36;14.60;93.70
5786;DHT22;2919;48.630;9.000;2023-03-23T09:25:02;14.60;93.90
5786;DHT22;2919;48.630;9.000;2023-03-23T09:27:27;14.60;94.30
5786;DHT22;2919;48.630;9.000;2023-03-23T09:29:53;14.50;94.00
5786;DHT22;2919;48.630;9.000;2023-03-23T09:32:21;14.60;93.60
5786;DHT22;2919;48.630;9.000;2023-03-23T09:34:48;14.60;93.80
5786;DHT22;2919;48.630;9.000;2023-03-23T09:37:14;14.40;94.10
5786;DHT22;2919;48.630;9.000;2023-03-23T09:39:39;14.40;94.40
5786;DHT22;2919;48.630;9.000;2023-03-23T09:44:46;14.30;94.50
5786;DHT22;2919;48.630;9.000;2023-03-23T09:50:27;14.20;94.80
5786;DHT22;2919;48.630;9.000;2023-03-23T09:53:05;14.30;95.10
5786;DHT22;2919;48.630;9.000;2023-03-23T09:55:34;14.50;94.60
5786;DHT22;2919;48.630;9.000;2023-03-23T09:58:16;14.60;94.20
5786;DHT22;2919;48.630;9.000;2023-03-23T10:01:01;14.70;94.60
5786;DHT22;2919;48.630;9.000;2023-03-23T10:03:37;14.90;93.70
5786;DHT22;2919;48.630;9.000;2023-03-23T10:06:04;15.20;93.70
5786;DHT22;2919;48.630;9.000;2023-03-23T10:08:31;15.40;93.40
5786;DHT22;2919;48.630;9.000;2023-03-23T10:11:43;15.60;93.20
5786;DHT22;2919;48.630;9.000;2023-03-23T10:16:51;15.40;93.10
5786;DHT22;2919;48.630;9.000;2023-03-23T10:22:03;15.40;92.90
5786;DHT22;2919;48.630;9.000;2023-03-23T10:24:57;15.50;93.20
5786;DHT22;2919;48.630;9.000;2023-03-23T10:27:34;15.70;93.30
5786;DHT22;2919;48.630;9.000;2023-03-23T10:30:25;15.60;92.70
5786;DHT22;2919;48.630;9.000;2023-03-23T10:32:56;15.60;92.60
5786;DHT22;2919;48.630;9.000;2023-03-23T10:35:29;15.50;93.00
5786;DHT22;2919;48.630;9.000;2023-03-23T10:38:00;15.50;92.80
5786;DHT22;2919;48.630;9.000;2023-03-23T10:40:29;15.40;92.90
5786;DHT22;2919;48.630;9.000;2023-03-23T10:42:57;15.30;93.30
5786;DHT22;2919;48.630;9.000;2023-03-23T10:45:28;15.30;93.40
5786;DHT22;2919;48.630;9.000;2023-03-23T10:50:35;15.40;93.40
5786;DHT22;2919;48.630;9.000;2023-03-23T10:53:10;15.70;92.80
5786;DHT22;2919;48.630;9.000;2023-03-23T10:55:40;15.90;93.00
5786;DHT22;2919;48.630;9.000;2023-03-23T10:58:10;16.10;93.10
5786;DHT22;2919;48.630;9.000;2023-03-23T11:00:44;16.10;92.80
5786;DHT22;2919;48.630;9.000;2023-03-23T11:05:43;15.90;92.50
5786;DHT22;2919;48.630;9.000;2023-03-23T11:08:15;16.20;93.00
5786;DHT22;2919;48.630;9.000;2023-03-23T11:11:14;16.10;92.50
5786;DHT22;2919;48.630;9.000;2023-03-23T11:13:46;16.10;92.60
5786;DHT22;2919;48.630;9.000;2023-03-23T11:16:26;16.10;92.90
5786;DHT22;2919;48.630;9.000;2023-03-23T11:18:53;16.20;93.20
5786;DHT22;2919;48.630;9.000;2023-03-23T11:21:21;16.00;93.50
5786;DHT22;2919;48.630;9.000;2023-03-23T11:23:58;15.80;93.90
5786;DHT22;2919;48.630;9.000;2023-03-23T11:26:31;15.60;94.30
5786;DHT22;2919;48.630;9.000;2023-03-23T11:31:27;15.70;94.40
5786;DHT22;2919;48.630;9.000;2023-03-23T11:34:09;15.80;93.70
5786;DHT22;2919;48.630;9.000;2023-03-23T11:36:42;15.80;93.30
5786;DHT22;2919;48.630;9.000;2023-03-23T11:39:23;15.90;93.70
5786;DHT22;2919;48.630;9.000;2023-03-23T11:41:50;16.00;92.60
5786;DHT22;2919;48.630;9.000;2023-03-23T11:44:16;16.00;92.90
5786;DHT22;2919;48.630;9.000;2023-03-23T11:47:02;16.00;93.00
5786;DHT22;2919;48.630;9.000;2023-03-23T11:55:30;16.00;92.50
5786;DHT22;2919;48.630;9.000;2023-03-23T11:58:03;15.90;92.00
5786;DHT22;2919;48.630;9.000;2023-03-23T12:00:30;16.00;92.20
5786;DHT22;2919;48.630;9.000;2023-03-23T12:03:02;16.00;92.30
5786;DHT22;2919;48.630;9.000;2023-03-23T12:05:42;16.10;92.00
5786;DHT22;2919;48.630;9.000;2023-03-23T12:14:02;15.90;92.40
5786;DHT22;2919;48.630;9.000;2023-03-23T12:22:30;15.70;92.00
5786;DHT22;2919;48.630;9.000;2023-03-23T12:28:18;15.70;91.80
5786;DHT22;2919;48.630;9.000;2023-03-23T12:33:43;15.70;91.60
5786;DHT22;2919;48.630;9.000;2023-03-23T12:38:54;15.70;91.70
5786;DHT22;2919;48.630;9.000;2023-03-23T12:44:13;15.90;91.70
5786;DHT22;2919;48.630;9.000;2023-03-23T12:49:46;16.10;90.60
5786;DHT22;2919;48.630;9.000;2023-03-23T12:52:23;16.00;91.00
5786;DHT22;2919;48.630;9.000;2023-03-23T13:00:31;16.20;90.90
5786;DHT22;2919;48.630;9.000;2023-03-23T13:06:40;16.40;90.60
5786;DHT22;2919;48.630;9.000;2023-03-23T13:11:54;16.50;90.40
5786;DHT22;2919;48.630;9.000;2023-03-23T13:25:27;16.60;90.20
5786;DHT22;2919;48.630;9.000;2023-03-23T13:27:59;16.70;90.60
5786;DHT22;2919;48.630;9.000;2023-03-23T13:30:27;16.80;90.60
5786;DHT22;2919;48.630;9.000;2023-03-23T13:33:02;17.00;90.30
5786;DHT22;2919;48.630;9.000;2023-03-23T13:35:35;17.00;88.40
5786;DHT22;2919;48.630;9.000;2023-03-23T13:38:25;17.00;87.40
5786;DHT22;2919;48.630;9.000;2023-03-23T13:40:52;16.90;87.40
5786;DHT22;2919;48.630;9.000;2023-03-23T13:43:27;17.00;88.50
5786;DHT22;2919;48.630;9.000;2023-03-23T13:45:53;17.10;88.30
5786;DHT22;2919;48.630;9.000;2023-03-23T13:48:23;17.10;88.50
5786;DHT22;2919;48.630;9.000;2023-03-23T13:56:06;17.10;88.50
5786;DHT22;2919;48.630;9.000;2023-03-23T13:58:44;17.00;86.60
5786;DHT22;2919;48.630;9.000;2023-03-23T14:01:32;16.80;86.40
5786;DHT22;2919;48.630;9.000;2023-03-23T14:03:59;16.80;87.80
5786;DHT22;2919;48.630;9.000;2023-03-23T14:06:26;16.80;86.90
5786;DHT22;2919;48.630;9.000;2023-03-23T14:09:05;16.80;86.20
5786;DHT22;2919;48.630;9.000;2023-03-23T14:11:32;16.90;86.10
5786;DHT22;2919;48.630;9.000;2023-03-23T14:14:07;16.80;86.10
5786;DHT22;2919;48.630;9.000;2023-03-23T14:16:39;16.70;87.10
5786;DHT22;2919;48.630;9.000;2023-03-23T14:19:25;16.60;87.50
5786;DHT22;2919;48.630;9.000;2023-03-23T14:24:20;16.50;87.50
5786;DHT22;2919;48.630;9.000;2023-03-23T14:26:48;16.40;86.30
5786;DHT22;2919;48.630;9.000;2023-03-23T14:29:18;16.40;87.90
5786;DHT22;2919;48.630;9.000;2023-03-23T14:31:44;16.40;87.60
5786;DHT22;2919;48.630;9.000;2023-03-23T14:34:14;16.30;87.00
5786;DHT22;2919;48.630;9.000;2023-03-23T14:36:40;16.30;87.70
5786;DHT22;2919;48.630;9.000;2023-03-23T14:39:21;16.20;87.00
5786;DHT22;2919;48.630;9.000;2023-03-23T14:41:49;16.20;86.90
5786;DHT22;2919;48.630;9.000;2023-03-23T14:44:46;16.20;85.90
5786;DHT22;2919;48.630;9.000;2023-03-23T14:47:27;16.20;85.90
5786;DHT22;2919;48.630;9.000;2023-03-23T14:49:57;16.20;86.40
5786;DHT22;2919;48.630;9.000;2023-03-23T14:52:27;16.20;85.30
5786;DHT22;2919;48.630;9.000;2023-03-23T14:54:53;16.20;86.20
5786;DHT22;2919;48.630;9.000;2023-03-23T14:59:51;16.20;85.80
5786;DHT22;2919;48.630;9.000;2023-03-23T15:02:23;16.20;84.90
5786;DHT22;2919;48.630;9.000;2023-03-23T15:04:54;16.10;85.20
5786;DHT22;2919;48.630;9.000;2023-03-23T15:07:22;16.10;86.00
5786;DHT22;2919;48.630;9.000;2023-03-23T15:09:50;16.10;86.00
5786;DHT22;2919;48.630;9.000;2023-03-23T15:12:22;16.10;85.00
5786;DHT22;2919;48.630;9.000;2023-03-23T15:14:52;16.10;86.00
5786;DHT22;2919;48.630;9.000;2023-03-23T15:17:22;16.00;85.90
5786;DHT22;2919;48.630;9.000;2023-03-23T15:19:48;16.00;85.90
5786;DHT22;2919;48.630;9.000;2023-03-23T15:22:35;16.10;86.50
5786;DHT22;2919;48.630;9.000;2023-03-23T15:27:43;15.90;86.00
5786;DHT22;2919;48.630;9.000;2023-03-23T15:32:52;15.80;86.70
5786;DHT22;2919;48.630;9.000;2023-03-23T15:35:23;15.80;87.20
5786;DHT22;2919;48.630;9.000;2023-03-23T15:38:02;15.70;87.20
5786;DHT22;2919;48.630;9.000;2023-03-23T15:40:35;15.70;86.80
5786;DHT22;2919;48.630;9.000;2023-03-23T15:43:31;15.70;86.80
5786;DHT22;2919;48.630;9.000;2023-03-23T15:45:57;15.60;86.80
5786;DHT22;2919;48.630;9.000;2023-03-23T15:48:30;15.50;87.10
5786;DHT22;2919;48.630;9.000;2023-03-23T15:50:57;15.50;86.80
5786;DHT22;2919;48.630;9.000;2023-03-23T15:53:35;15.50;86.90
5786;DHT22;2919;48.630;9.000;2023-03-23T15:56:06;15.50;87.10
5786;DHT22;2919;48.630;9.000;2023-03-23T15:58:32;15.40;86.90
5786;DHT22;2919;48.630;9.000;2023-03-23T16:00:59;15.40;87.50
5786;DHT22;2919;48.630;9.000;2023-03-23T16:03:30;15.30;87.60
5786;DHT22;2919;48.630;9.000;2023-03-23T16:05:58;15.30;87.90
5786;DHT22;2919;48.630;9.000;2023-03-23T16:08:25;15.30;87.60
5786;DHT22;2919;48.630;9.000;2023-03-23T16:10:51;15.20;88.00
5786;DHT22;2919;48.630;9.000;2023-03-23T16:13:17;15.10;88.40
5786;DHT22;2919;48.630;9.000;2023-03-23T16:15:43;15.10;88.70
5786;DHT22;2919;48.630;9.000;2023-03-23T16:18:19;15.10;89.00
5786;DHT22;2919;48.630;9.000;2023-03-23T16:20:47;15.10;88.90
5786;DHT22;2919;48.630;9.000;2023-03-23T16:23:13;15.00;89.20
5786;DHT22;2919;48.630;9.000;2023-03-23T16:25:39;15.00;89.40
5786;DHT22;2919;48.630;9.000;2023-03-23T16:28:04;15.00;89.80
5786;DHT22;2919;48.630;9.000;2023-03-23T16:30:33;15.00;90.20
5786;DHT22;2919;48.630;9.000;2023-03-23T16:33:00;15.00;90.10
5786;DHT22;2919;48.630;9.000;2023-03-23T16:35:26;14.90;90.20
5786;DHT22;2919;48.630;9.000;2023-03-23T16:37:53;14.90;90.40
5786;DHT22;2919;48.630;9.000;2023-03-23T16:40:20;14.80;90.40
5786;DHT22;2919;48.630;9.000;2023-03-23T16:42:47;14.80;90.70
5786;DHT22;2919;48.630;9.000;2023-03-23T16:45:13;14.80;90.90
5786;DHT22;2919;48.630;9.000;2023-03-23T16:47:40;14.70;90.80
5786;DHT22;2919;48.630;9.000;2023-03-23T16:50:08;14.70;91.00
5786;DHT22;2919;48.630;9.000;2023-03-23T16:52:37;14.70;91.00
5786;DHT22;2919;48.630;9.000;2023-03-23T16:55:04;14.70;91.00
5786;DHT22;2919;48.630;9.000;2023-03-23T16:57:32;14.70;91.00
5786;DHT22;2919;48.630;9.000;2023-03-23T16:59:59;14.70;91.00
5786;DHT22;2919;48.630;9.000;2023-03-23T17:02:25;14.60;91.30
5786;DHT22;2919;48.630;9.000;2023-03-23T17:04:51;14.60;91.50
5786;DHT22;2919;48.630;9.000;2023-03-23T17:07:16;14.60;91.30
5786;DHT22;2919;48.630;9.000;2023-03-23T17:09:42;14.60;91.40
5786;DHT22;2919;48.630;9.000;2023-03-23T17:12:08;14.60;91.40
5786;DHT22;2919;48.630;9.000;2023-03-23T17:14:34;14.60;91.60
5786;DHT22;2919;48.630;9.000;2023-03-23T17:17:01;14.50;91.70
5786;DHT22;2919;48.630;9.000;2023-03-23T17:19:27;14.50;92.00
5786;DHT22;2919;48.630;9.000;2023-03-23T17:21:52;14.50;91.90
5786;DHT22;2919;48.630;9.000;2023-03-23T17:24:18;14.40;92.20
5786;DHT22;2919;48.630;9.000;2023-03-23T17:26:44;14.30;92.10
5786;DHT22;2919;48.630;9.000;2023-03-23T17:29:09;14.30;92.20
5786;DHT22;2919;48.630;9.000;2023-03-23T17:31:35;14.30;92.30
5786;DHT22;2919;48.630;9.000;2023-03-23T17:34:01;14.20;92.30
5786;DHT22;2919;48.630;9.000;2023-03-23T17:36:27;14.20;92.30
5786;DHT22;2919;48.630;9.000;2023-03-23T17:38:52;14.20;92.30
5786;DHT22;2919;48.630;9.000;2023-03-23T17:41:18;14.20;92.30
5786;DHT22;2919;48.630;9.000;2023-03-23T17:43:46;14.20;92.50
5786;DHT22;2919;48.630;9.000;2023-03-23T17:46:11;14.20;92.30
5786;DHT22;2919;48.630;9.000;2023-03-23T17:48:37;14.20;92.30
5786;DHT22;2919;48.630;9.000;2023-03-23T17:51:03;14.10;92.50
5786;DHT22;2919;48.630;9.000;2023-03-23T17:53:31;14.10;92.60
5786;DHT22;2919;48.630;9.000;2023-03-23T17:55:58;14.10;92.70
5786;DHT22;2919;48.630;9.000;2023-03-23T17:58:24;14.10;92.70
5786;DHT22;2919;48.630;9.000;2023-03-23T18:00:53;14.10;92.70
5786;DHT22;2919;48.630;9.000;2023-03-23T18:03:19;14.10;92.70
5786;DHT22;2919;48.630;9.000;2023-03-23T18:05:45;14.00;92.70